createdAt,value
2022-10-04T00:01:47.846Z,4.35
2022-10-04T00:04:19.116Z,4.70
2022-10-04T00:06:50.960Z,6.43
2022-10-04T00:09:23.429Z,5.43
2022-10-04T00:11:53.880Z,5.68
2022-10-04T00:14:24.240Z,4.35
2022-10-04T00:16:52.715Z,5.18
2022-10-04T00:19:40.293Z,4.63
2022-10-04T00:22:18.473Z,5.78
2022-10-04T00:25:23.128Z,5.85
2022-10-04T00:28:29.063Z,5.70
2022-10-04T00:31:17.525Z,7.03
2022-10-04T00:33:47.637Z,6.28
2022-10-04T00:36:40.607Z,5.25
2022-10-04T00:39:47.632Z,5.80
2022-10-04T00:42:37.756Z,5.05
2022-10-04T00:45:12.918Z,5.10
2022-10-04T00:47:59.324Z,5.20
2022-10-04T00:50:30.761Z,5.30
2022-10-04T00:53:01.053Z,4.68
2022-10-04T00:55:35.146Z,4.93
2022-10-04T00:58:07.514Z,5.40
2022-10-04T01:00:36.894Z,7.40
2022-10-04T01:03:07.313Z,6.00
2022-10-04T01:05:38.003Z,5.60
2022-10-04T01:10:41.681Z,6.68
2022-10-04T01:13:15.367Z,5.93
2022-10-04T01:15:46.337Z,9.13
2022-10-04T01:18:16.606Z,6.65
2022-10-04T01:20:54.515Z,5.72
2022-10-04T01:23:41.873Z,7.80
2022-10-04T01:26:39.200Z,5.65
2022-10-04T01:29:10.310Z,9.00
2022-10-04T01:31:40.723Z,8.52
2022-10-04T01:36:38.095Z,5.85
2022-10-04T01:39:08.215Z,6.05
2022-10-04T01:41:44.635Z,5.85
2022-10-04T01:44:20.126Z,7.85
2022-10-04T01:46:49.633Z,5.85
2022-10-04T01:49:20.223Z,5.47
2022-10-04T01:51:54.463Z,6.68
2022-10-04T01:54:32.527Z,7.13
2022-10-04T01:57:05.210Z,6.53
2022-10-04T01:59:39.506Z,7.53
2022-10-04T02:02:10.847Z,8.05
2022-10-04T02:04:40.466Z,7.32
2022-10-04T02:07:13.772Z,6.30
2022-10-04T02:09:45.705Z,6.07
2022-10-04T02:12:17.206Z,6.53
2022-10-04T02:14:52.648Z,6.03
2022-10-04T02:17:23.292Z,6.75
2022-10-04T02:22:20.223Z,7.35
2022-10-04T02:24:50.826Z,7.55
2022-10-04T02:29:47.078Z,6.68
2022-10-04T02:32:33.513Z,20.80
2022-10-04T02:35:01.831Z,19.27
2022-10-04T02:37:30.213Z,29.17
2022-10-04T02:40:06.216Z,24.15
2022-10-04T02:42:40.250Z,18.45
2022-10-04T02:45:14.899Z,13.15
2022-10-04T02:47:46.707Z,18.58
2022-10-04T02:50:27.624Z,16.02
2022-10-04T02:52:58.866Z,17.05
2022-10-04T02:55:31.278Z,16.90
2022-10-04T02:58:01.150Z,17.02
2022-10-04T03:00:30.710Z,17.58
2022-10-04T03:03:16.021Z,20.55
2022-10-04T03:05:46.055Z,24.80
2022-10-04T03:08:14.637Z,14.30
2022-10-04T03:10:45.006Z,19.98
2022-10-04T03:13:16.006Z,17.98
2022-10-04T03:15:44.448Z,33.15
2022-10-04T03:18:12.847Z,25.23
2022-10-04T03:20:41.690Z,24.35
2022-10-04T03:23:11.787Z,12.82
2022-10-04T03:25:47.343Z,17.05
2022-10-04T03:28:16.142Z,32.63
2022-10-04T03:30:45.328Z,19.65
2022-10-04T03:33:18.809Z,15.40
2022-10-04T03:35:48.667Z,10.32
2022-10-04T03:38:17.862Z,10.35
2022-10-04T03:40:53.232Z,10.13
2022-10-04T03:43:24.791Z,8.10
2022-10-04T03:45:53.443Z,5.57
2022-10-04T03:48:29.061Z,10.57
2022-10-04T03:50:57.566Z,7.15
2022-10-04T03:53:30.896Z,6.63
2022-10-04T03:56:04.175Z,10.52
2022-10-04T03:58:32.883Z,20.20
2022-10-04T04:01:14.640Z,17.55
2022-10-04T04:03:52.906Z,16.02
2022-10-04T04:06:21.994Z,18.65
2022-10-04T04:08:53.362Z,11.07
2022-10-04T04:11:24.909Z,12.25
2022-10-04T04:14:00.168Z,26.00
2022-10-04T04:16:28.613Z,45.85
2022-10-04T04:19:00.613Z,15.73
2022-10-04T04:21:29.166Z,10.45
2022-10-04T04:24:00.770Z,18.30
2022-10-04T04:26:36.082Z,12.60
2022-10-04T04:29:08.150Z,15.85
2022-10-04T04:31:40.268Z,11.52
2022-10-04T04:34:17.865Z,8.73
2022-10-04T04:36:46.138Z,11.43
2022-10-04T04:39:37.302Z,12.13
2022-10-04T04:42:15.401Z,11.65
2022-10-04T04:44:49.844Z,10.48
2022-10-04T04:47:33.212Z,6.05
2022-10-04T04:50:07.260Z,6.85
2022-10-04T04:52:36.247Z,11.80
2022-10-04T04:55:06.185Z,14.35
2022-10-04T04:57:36.008Z,6.20
2022-10-04T05:00:05.257Z,9.48
2022-10-04T05:02:35.595Z,10.32
2022-10-04T05:05:23.048Z,5.20
2022-10-04T05:07:52.670Z,15.50
2022-10-04T05:10:31.361Z,11.73
2022-10-04T05:13:04.453Z,15.70
2022-10-04T05:15:34.960Z,8.82
2022-10-04T05:18:03.664Z,6.18
2022-10-04T05:20:34.446Z,7.78
2022-10-04T05:25:33.616Z,14.43
2022-10-04T05:28:03.620Z,17.75
2022-10-04T05:30:42.900Z,27.65
2022-10-04T05:33:13.418Z,23.23
2022-10-04T05:35:55.792Z,31.40
2022-10-04T05:38:28.917Z,24.48
2022-10-04T05:41:02.174Z,31.20
2022-10-04T05:43:36.923Z,17.70
2022-10-04T05:46:23.421Z,19.48
2022-10-04T05:48:55.448Z,8.43
2022-10-04T05:51:25.699Z,7.65
2022-10-04T05:53:54.434Z,9.60
2022-10-04T05:56:37.654Z,10.88
2022-10-04T05:59:15.223Z,6.72
2022-10-04T06:01:49.205Z,10.88
2022-10-04T06:04:32.540Z,7.63
2022-10-04T06:07:03.121Z,9.18
2022-10-04T06:09:47.103Z,7.45
2022-10-04T06:12:18.496Z,8.30
2022-10-04T06:15:08.356Z,7.22
2022-10-04T06:18:03.533Z,6.47
2022-10-04T06:20:54.917Z,9.05
2022-10-04T06:23:24.742Z,7.97
2022-10-04T06:25:56.348Z,6.25
2022-10-04T06:28:28.034Z,6.85
2022-10-04T06:31:27.904Z,6.80
2022-10-04T06:34:11.791Z,10.98
2022-10-04T06:37:02.160Z,6.47
2022-10-04T06:39:45.138Z,6.20
2022-10-04T06:42:40.651Z,6.88
2022-10-04T06:45:22.846Z,8.88
2022-10-04T06:48:18.622Z,8.43
2022-10-04T06:50:51.144Z,9.40
2022-10-04T06:53:27.879Z,8.65
2022-10-04T06:56:12.759Z,6.82
2022-10-04T06:59:23.674Z,6.03
2022-10-04T07:04:41.161Z,9.25
2022-10-04T07:07:34.929Z,8.15
2022-10-04T07:10:16.561Z,7.30
2022-10-04T07:12:49.035Z,7.20
2022-10-04T07:15:21.077Z,7.63
2022-10-04T07:17:50.374Z,9.63
2022-10-04T07:20:23.743Z,9.52
2022-10-04T07:22:56.938Z,9.18
2022-10-04T07:25:28.961Z,7.20
2022-10-04T07:28:14.825Z,7.10
2022-10-04T07:30:48.609Z,9.73
2022-10-04T07:33:19.943Z,10.02
2022-10-04T07:35:52.022Z,9.43
2022-10-04T07:38:25.044Z,11.48
2022-10-04T07:41:04.965Z,11.80
2022-10-04T07:43:35.800Z,10.70
2022-10-04T07:46:07.666Z,8.90
2022-10-04T07:48:41.438Z,11.15
2022-10-04T07:51:20.587Z,12.80
2022-10-04T07:53:52.172Z,8.93
2022-10-04T07:56:23.667Z,8.63
2022-10-04T07:58:58.063Z,12.02
2022-10-04T08:01:31.558Z,19.10
2022-10-04T08:04:26.532Z,11.02
2022-10-04T08:06:59.960Z,13.02
2022-10-04T08:09:48.955Z,11.23
2022-10-04T08:12:22.024Z,10.20
2022-10-04T08:14:56.711Z,10.50
2022-10-04T08:17:41.835Z,10.02
2022-10-04T08:20:24.594Z,11.45
2022-10-04T08:23:05.866Z,13.60
2022-10-04T08:25:42.561Z,8.52
2022-10-04T08:28:39.501Z,17.95
2022-10-04T08:31:21.186Z,11.13
2022-10-04T08:33:59.489Z,9.52
2022-10-04T08:36:41.876Z,10.73
2022-10-04T08:39:24.348Z,7.93
2022-10-04T08:42:28.787Z,12.90
2022-10-04T08:45:32.402Z,11.07
2022-10-04T08:48:34.118Z,9.13
2022-10-04T08:51:30.595Z,12.80
2022-10-04T08:54:35.729Z,7.45
2022-10-04T08:57:25.502Z,10.48
2022-10-04T09:00:21.969Z,10.53
2022-10-04T09:03:17.830Z,7.72
2022-10-04T09:05:57.155Z,9.60
2022-10-04T09:09:15.442Z,8.75
2022-10-04T09:11:56.242Z,10.65
2022-10-04T09:14:50.128Z,7.63
2022-10-04T09:17:22.788Z,8.18
2022-10-04T09:20:09.079Z,8.88
2022-10-04T09:22:50.089Z,6.72
2022-10-04T09:25:23.808Z,8.55
2022-10-04T09:28:22.354Z,10.13
2022-10-04T09:31:03.041Z,8.13
2022-10-04T09:33:51.656Z,9.40
2022-10-04T09:36:41.549Z,9.13
2022-10-04T09:39:33.581Z,11.32
2022-10-04T09:42:27.813Z,8.88
2022-10-04T09:45:16.741Z,10.70
2022-10-04T09:47:49.185Z,7.97
2022-10-04T09:50:50.022Z,8.15
2022-10-04T09:53:35.966Z,5.78
2022-10-04T09:56:39.073Z,5.45
2022-10-04T09:59:32.500Z,8.00
2022-10-04T10:02:33.683Z,6.20
2022-10-04T10:05:21.006Z,7.70
2022-10-04T10:07:53.221Z,6.82
2022-10-04T10:10:45.313Z,7.35
2022-10-04T10:13:43.345Z,5.22
2022-10-04T10:16:22.785Z,7.60
2022-10-04T10:19:01.086Z,8.05
2022-10-04T10:21:49.672Z,8.27
2022-10-04T10:24:30.775Z,6.05
2022-10-04T10:27:09.724Z,7.50
2022-10-04T10:30:05.273Z,6.10
2022-10-04T10:32:42.811Z,4.78
2022-10-04T10:35:21.440Z,7.28
2022-10-04T10:38:04.793Z,5.38
2022-10-04T10:40:41.043Z,7.07
2022-10-04T10:43:33.521Z,8.38
2022-10-04T10:46:06.106Z,8.02
2022-10-04T10:48:48.365Z,7.40
2022-10-04T10:51:20.572Z,9.07
2022-10-04T10:54:17.045Z,7.63
2022-10-04T10:56:56.824Z,7.00
2022-10-04T10:59:54.096Z,8.57
2022-10-04T11:03:11.910Z,8.80
2022-10-04T11:06:25.143Z,9.55
2022-10-04T11:09:23.512Z,7.85
2022-10-04T11:12:28.778Z,6.25
2022-10-04T11:15:13.486Z,7.38
2022-10-04T11:18:20.279Z,6.45
2022-10-04T11:21:28.163Z,5.97
2022-10-04T11:24:30.502Z,8.35
2022-10-04T11:27:14.932Z,7.55
2022-10-04T11:30:00.311Z,8.25
2022-10-04T11:32:55.269Z,7.13
2022-10-04T11:36:15.399Z,6.10
2022-10-04T11:38:53.296Z,7.25
2022-10-04T11:41:29.258Z,6.82
2022-10-04T11:44:17.399Z,5.03
2022-10-04T11:46:51.142Z,7.05
2022-10-04T11:49:37.926Z,5.63
2022-10-04T11:52:31.375Z,9.73
2022-10-04T11:55:35.283Z,7.22
2022-10-04T11:58:11.978Z,8.70
2022-10-04T12:01:01.030Z,5.90
2022-10-04T12:03:59.946Z,7.10
2022-10-04T12:06:40.253Z,8.82
2022-10-04T12:09:15.719Z,8.55
2022-10-04T12:12:33.590Z,6.85
2022-10-04T12:15:22.337Z,7.40
2022-10-04T12:18:12.649Z,8.38
2022-10-04T12:21:17.973Z,7.82
2022-10-04T12:24:09.639Z,7.68
2022-10-04T12:27:21.876Z,8.00
2022-10-04T12:30:22.195Z,6.72
2022-10-04T12:32:58.196Z,6.80
2022-10-04T12:35:33.844Z,6.78
2022-10-04T12:38:19.752Z,7.45
2022-10-04T12:40:53.804Z,8.82
2022-10-04T12:43:28.169Z,6.45
2022-10-04T12:46:06.593Z,6.60
2022-10-04T12:48:48.250Z,7.43
2022-10-04T12:51:29.999Z,6.32
2022-10-04T12:54:04.150Z,7.55
2022-10-04T12:56:44.405Z,8.20
2022-10-04T13:02:05.734Z,7.78
2022-10-04T13:04:38.879Z,8.90
2022-10-04T13:07:30.846Z,7.88
2022-10-04T13:10:24.230Z,7.30
2022-10-04T13:13:13.732Z,6.80
2022-10-04T13:18:35.606Z,8.13
2022-10-04T13:21:06.451Z,6.57
2022-10-04T13:23:54.343Z,6.38
2022-10-04T13:26:42.643Z,6.22
2022-10-04T13:29:18.662Z,8.32
2022-10-04T13:31:50.906Z,5.82
2022-10-04T13:34:28.247Z,6.78
2022-10-04T13:37:14.224Z,5.97
2022-10-04T13:39:59.410Z,8.75
2022-10-04T13:42:42.435Z,7.38
2022-10-04T13:45:32.132Z,9.02
2022-10-04T13:48:26.435Z,6.53
2022-10-04T13:51:36.667Z,6.57
2022-10-04T13:54:31.261Z,6.70
2022-10-04T13:57:07.551Z,8.80
2022-10-04T13:59:44.263Z,6.82
2022-10-04T14:02:34.521Z,9.80
2022-10-04T14:05:47.215Z,7.68
2022-10-04T14:08:49.920Z,6.60
2022-10-04T14:12:04.414Z,7.32
2022-10-04T14:15:14.681Z,6.80
2022-10-04T14:18:26.915Z,5.63
2022-10-04T14:21:35.535Z,9.32
2022-10-04T14:24:35.623Z,5.20
2022-10-04T14:27:37.452Z,5.80
2022-10-04T14:30:14.929Z,7.65
2022-10-04T14:33:15.330Z,11.82
2022-10-04T14:35:47.967Z,7.82
2022-10-04T14:38:37.634Z,6.75
2022-10-04T14:41:46.247Z,6.13
2022-10-04T14:44:51.047Z,7.97
2022-10-04T14:47:38.751Z,6.05
2022-10-04T14:50:23.120Z,7.35
2022-10-04T14:53:05.166Z,6.47
2022-10-04T14:55:55.701Z,7.22
2022-10-04T14:58:29.104Z,7.03
2022-10-04T15:01:06.675Z,11.10
2022-10-04T15:03:40.661Z,7.13
2022-10-04T15:06:36.522Z,9.63
2022-10-04T15:09:41.284Z,7.75
2022-10-04T15:13:08.727Z,7.25
2022-10-04T15:15:53.409Z,10.93
2022-10-04T15:18:31.365Z,6.30
2022-10-04T15:21:02.685Z,10.02
2022-10-04T15:23:37.883Z,8.13
2022-10-04T15:26:13.917Z,9.73
2022-10-04T15:28:56.823Z,6.18
2022-10-04T15:31:29.699Z,6.72
2022-10-04T15:34:03.200Z,5.78
2022-10-04T15:37:05.450Z,6.68
2022-10-04T15:40:06.367Z,7.75
2022-10-04T15:42:35.475Z,5.60
2022-10-04T15:45:38.722Z,6.50
2022-10-04T15:48:32.925Z,6.60
2022-10-04T15:51:07.124Z,9.65
2022-10-04T15:54:03.096Z,6.85
2022-10-04T15:56:46.256Z,9.35
2022-10-04T15:59:26.750Z,10.18
2022-10-04T16:02:18.558Z,14.15
2022-10-04T16:04:48.101Z,10.82
2022-10-04T16:07:32.224Z,9.73
2022-10-04T16:10:15.152Z,7.95
2022-10-04T16:13:14.246Z,8.05
2022-10-04T16:15:48.133Z,12.77
2022-10-04T16:18:35.606Z,8.20
2022-10-04T16:21:12.816Z,8.38
2022-10-04T16:23:43.992Z,7.55
2022-10-04T16:26:14.022Z,11.30
2022-10-04T16:29:07.109Z,8.63
2022-10-04T16:31:43.922Z,10.55
2022-10-04T16:34:27.103Z,10.30
2022-10-04T16:36:59.779Z,7.38
2022-10-04T16:39:52.309Z,10.15
2022-10-04T16:42:24.558Z,10.65
2022-10-04T16:44:56.097Z,9.48
2022-10-04T16:47:28.563Z,12.10
2022-10-04T16:49:58.901Z,7.13
2022-10-04T16:52:48.383Z,8.00
2022-10-04T16:55:26.665Z,9.00
2022-10-04T16:58:37.615Z,20.23
2022-10-04T17:01:57.557Z,23.05
2022-10-04T17:04:44.864Z,24.17
2022-10-04T17:07:24.936Z,20.10
2022-10-04T17:09:58.134Z,17.00
2022-10-04T17:12:35.367Z,20.05
2022-10-04T17:15:45.527Z,21.00
2022-10-04T17:18:21.209Z,14.85
2022-10-04T17:20:57.909Z,14.25
2022-10-04T17:23:54.652Z,11.63
2022-10-04T17:26:39.560Z,17.50
2022-10-04T17:29:21.737Z,13.38
2022-10-04T17:31:55.202Z,12.27
2022-10-04T17:34:33.330Z,17.77
2022-10-04T17:37:06.355Z,17.27
2022-10-04T17:39:44.382Z,13.10
2022-10-04T17:42:28.774Z,13.80
2022-10-04T17:45:36.795Z,11.05
2022-10-04T17:48:26.736Z,18.15
2022-10-04T17:51:17.603Z,15.52
2022-10-04T17:54:08.038Z,13.80
2022-10-04T17:56:41.406Z,11.38
2022-10-04T17:59:14.106Z,12.82
2022-10-04T18:01:45.912Z,10.70
2022-10-04T18:04:18.757Z,12.38
2022-10-04T18:06:52.372Z,12.77
2022-10-04T18:09:24.185Z,9.13
2022-10-04T18:11:56.871Z,10.55
2022-10-04T18:14:46.610Z,8.68
2022-10-04T18:17:27.043Z,12.57
2022-10-04T18:20:03.083Z,15.10
2022-10-04T18:22:43.425Z,14.88
2022-10-04T18:25:15.682Z,11.30
2022-10-04T18:28:02.194Z,12.73
2022-10-04T18:30:30.795Z,12.20
2022-10-04T18:32:59.095Z,14.93
2022-10-04T18:35:29.208Z,12.25
2022-10-04T18:37:59.813Z,11.68
2022-10-04T18:43:01.796Z,7.90
2022-10-04T18:45:31.246Z,8.07
2022-10-04T18:48:01.337Z,11.43
2022-10-04T18:50:35.724Z,10.68
2022-10-04T18:53:24.274Z,16.95
2022-10-04T18:55:59.770Z,13.02
2022-10-04T18:58:59.403Z,8.70
2022-10-04T19:02:04.020Z,6.57
2022-10-04T19:04:39.719Z,12.95
2022-10-04T19:07:10.969Z,13.45
2022-10-04T19:10:04.891Z,12.25
2022-10-04T19:12:41.746Z,14.70
2022-10-04T19:15:23.274Z,10.70
2022-10-04T19:17:56.568Z,11.23
2022-10-04T19:20:27.915Z,13.38
2022-10-04T19:23:04.267Z,15.95
2022-10-04T19:25:39.135Z,14.75
2022-10-04T19:28:10.532Z,13.70
2022-10-04T19:31:01.622Z,12.90
2022-10-04T19:33:38.308Z,9.27
2022-10-04T19:36:15.354Z,12.35
2022-10-04T19:38:53.512Z,16.13
2022-10-04T19:41:30.855Z,15.15
2022-10-04T19:44:05.242Z,16.83
2022-10-04T19:46:41.677Z,13.60
2022-10-04T19:49:19.029Z,12.43
2022-10-04T19:51:51.324Z,12.40
2022-10-04T19:54:22.896Z,10.48
2022-10-04T19:56:51.957Z,10.30
2022-10-04T19:59:24.166Z,8.23
2022-10-04T20:01:53.800Z,7.00
2022-10-04T20:04:38.517Z,7.15
2022-10-04T20:07:13.193Z,7.15
2022-10-04T20:09:59.273Z,7.15
2022-10-04T20:12:36.451Z,8.38
2022-10-04T20:15:15.873Z,9.05
2022-10-04T20:17:47.526Z,10.68
2022-10-04T20:20:17.615Z,7.72
2022-10-04T20:22:57.342Z,5.25
2022-10-04T20:26:06.148Z,7.20
2022-10-04T20:28:44.824Z,5.32
2022-10-04T20:31:53.696Z,7.57
2022-10-04T20:34:34.280Z,5.97
2022-10-04T20:37:03.152Z,5.75
2022-10-04T20:40:01.520Z,8.23
2022-10-04T20:42:32.677Z,8.20
2022-10-04T20:45:03.704Z,7.13
2022-10-04T20:47:39.233Z,7.50
2022-10-04T20:50:16.493Z,6.20
2022-10-04T20:52:46.687Z,7.47
2022-10-04T20:55:27.162Z,8.80
2022-10-04T20:57:57.010Z,6.25
2022-10-04T21:00:27.334Z,7.88
2022-10-04T21:03:09.611Z,9.90
2022-10-04T21:05:40.325Z,6.70
2022-10-04T21:08:15.973Z,5.80
2022-10-04T21:11:19.444Z,8.93
2022-10-04T21:13:59.189Z,8.38
2022-10-04T21:16:52.331Z,7.68
2022-10-04T21:19:47.329Z,8.27
2022-10-04T21:22:42.923Z,6.97
2022-10-04T21:25:42.577Z,15.98
2022-10-04T21:28:40.758Z,8.18
2022-10-04T21:31:09.049Z,7.00
2022-10-04T21:33:37.904Z,6.50
2022-10-04T21:36:06.966Z,8.52
2022-10-04T21:38:35.256Z,10.35
2022-10-04T21:41:04.838Z,7.10
2022-10-04T21:43:33.382Z,9.20
2022-10-04T21:46:01.795Z,7.45
2022-10-04T21:48:30.129Z,7.13
2022-10-04T21:50:58.399Z,10.82
2022-10-04T21:53:26.615Z,7.95
2022-10-04T21:55:54.897Z,8.45
2022-10-04T21:58:24.467Z,6.85
2022-10-04T22:00:52.732Z,9.48
2022-10-04T22:03:21.086Z,9.23
2022-10-04T22:05:49.334Z,9.10
2022-10-04T22:08:17.631Z,7.35
2022-10-04T22:10:47.232Z,5.68
2022-10-04T22:13:15.551Z,6.53
2022-10-04T22:15:45.190Z,5.90
2022-10-04T22:18:13.467Z,7.18
2022-10-04T22:20:41.702Z,8.75
2022-10-04T22:23:13.366Z,5.13
2022-10-04T22:25:41.624Z,5.45
2022-10-04T22:28:18.422Z,4.80
2022-10-04T22:30:49.450Z,5.20
2022-10-04T22:33:28.265Z,5.38
2022-10-04T22:35:57.612Z,6.70
2022-10-04T22:38:25.817Z,5.72
2022-10-04T22:40:54.539Z,5.45
2022-10-04T22:43:22.746Z,6.28
2022-10-04T22:45:58.506Z,7.38
2022-10-04T22:48:28.898Z,8.10
2022-10-04T22:50:57.220Z,6.95
2022-10-04T22:53:25.836Z,6.50
2022-10-04T22:55:55.895Z,6.78
2022-10-04T22:58:24.197Z,7.63
2022-10-04T23:00:54.483Z,7.00
2022-10-04T23:03:31.175Z,6.15
2022-10-04T23:05:59.587Z,6.40
2022-10-04T23:08:28.242Z,6.53
2022-10-04T23:10:56.848Z,7.20
2022-10-04T23:13:26.352Z,7.80
2022-10-04T23:15:58.727Z,7.93
2022-10-04T23:18:28.025Z,8.55
2022-10-04T23:20:59.009Z,8.57
2022-10-04T23:23:28.858Z,7.57
2022-10-04T23:25:57.213Z,8.75
2022-10-04T23:28:25.739Z,9.45
2022-10-04T23:31:03.097Z,9.30
2022-10-04T23:33:31.501Z,8.60
2022-10-04T23:35:59.874Z,11.77
2022-10-04T23:38:29.355Z,9.02
2022-10-04T23:40:57.620Z,8.20
2022-10-04T23:43:26.899Z,7.05
2022-10-04T23:45:58.772Z,6.15
2022-10-04T23:48:28.772Z,8.35
2022-10-04T23:50:59.761Z,6.35
2022-10-04T23:53:29.078Z,6.47
2022-10-04T23:55:58.377Z,6.05
2022-10-04T23:58:31.608Z,6.15
